Time;durP1;ratioP1;P1;durP2;ratioP2;P2;SDS_P1;SDS_P2;PMS_P1;PMS_P2;Temp;Humidity;BMP_temperature;BMP_pressure;BME280_temperature;BME280_humidity;BME280_pressure;Samples;Min_cycle;Max_cycle;Signal;HPM_P1;HPM_P2
2023/04/21 00:01:17;;;;;;;3.00;2.70;;;;;;;20.35;51.43;97061.22;4946210;29;20208;-27
2023/04/21 00:03:45;;;;;;;2.93;2.70;;;;;;;20.36;51.65;97065.47;4949826;28;20625;-26
2023/04/21 00:06:12;;;;;;;2.70;2.50;;;;;;;20.37;51.53;97069.75;4952047;29;20208;-26
2023/04/21 00:08:39;;;;;;;2.60;2.40;;;;;;;20.36;51.44;97067.16;4949340;28;20236;-26
2023/04/21 00:11:06;;;;;;;2.60;2.40;;;;;;;20.37;51.60;97058.69;4942135;29;20329;-28
2023/04/21 00:13:34;;;;;;;2.60;2.40;;;;;;;20.37;51.76;97063.78;4947999;28;20212;-26
2023/04/21 00:16:01;;;;;;;2.60;2.40;;;;;;;20.37;51.73;97067.19;4951519;28;20699;-26
2023/04/21 00:18:28;;;;;;;2.50;2.30;;;;;;;20.37;51.49;97061.25;4949038;28;20263;-27
2023/04/21 00:20:55;;;;;;;2.90;2.60;;;;;;;20.36;52.30;97062.91;4954078;28;20252;-26
2023/04/21 00:23:21;;;;;;;2.80;2.60;;;;;;;20.35;51.65;97068.88;4950165;29;20215;-29
2023/04/21 00:25:48;;;;;;;2.83;2.60;;;;;;;20.36;52.07;97069.69;4950319;28;20227;-26
2023/04/21 00:28:15;;;;;;;2.87;2.67;;;;;;;20.35;51.55;97071.41;4948797;29;20224;-26
2023/04/21 00:30:41;;;;;;;2.70;2.50;;;;;;;20.35;51.57;97063.75;4956061;28;20228;-26
2023/04/21 00:33:08;;;;;;;3.20;2.90;;;;;;;20.34;51.76;97069.66;4956466;28;20205;-26
2023/04/21 00:35:34;;;;;;;2.73;2.50;;;;;;;20.35;51.46;97065.44;4943076;29;20217;-37
2023/04/21 00:38:01;;;;;;;3.00;2.80;;;;;;;20.35;51.75;97062.88;4951041;28;20255;-26
2023/04/21 00:40:27;;;;;;;2.90;2.60;;;;;;;20.34;50.90;97072.22;4953788;28;20676;-26
2023/04/21 00:42:54;;;;;;;2.87;2.67;;;;;;;20.34;51.84;97067.09;4946540;28;20212;-26
2023/04/21 00:45:21;;;;;;;5.10;2.90;;;;;;;20.34;51.97;97064.56;4955082;28;20204;-27
2023/04/21 00:47:47;;;;;;;4.83;3.00;;;;;;;20.33;51.56;97067.94;4948541;28;20229;-37
2023/04/21 00:50:14;;;;;;;5.80;2.80;;;;;;;20.33;52.23;97069.63;4949590;29;20228;-26
2023/04/21 00:52:42;;;;;;;3.23;2.80;;;;;;;20.32;51.70;97058.56;4948834;28;20259;-30
2023/04/21 00:55:09;;;;;;;3.07;2.87;;;;;;;20.32;51.67;97063.69;4951853;28;20213;-27
2023/04/21 00:57:36;;;;;;;8.70;3.13;;;;;;;20.31;51.67;97058.53;4954398;28;20720;-27
2023/04/21 01:00:05;;;;;;;2.87;2.67;;;;;;;20.30;51.83;97062.75;4945781;28;20205;-26
2023/04/21 01:02:33;;;;;;;3.20;2.50;;;;;;;20.27;51.89;97052.47;4943923;28;20676;-31
2023/04/21 01:05:00;;;;;;;3.57;2.60;;;;;;;20.30;51.95;97057.66;4945849;29;20259;-30
2023/04/21 01:07:26;;;;;;;4.27;3.00;;;;;;;20.27;52.05;97057.56;4960484;28;20232;-27
2023/04/21 01:09:53;;;;;;;5.50;3.47;;;;;;;20.31;51.75;97061.09;4936952;29;20215;-26
2023/04/21 01:12:19;;;;;;;3.07;2.83;;;;;;;20.31;51.81;97066.19;4949891;29;20228;-26
2023/04/21 01:14:46;;;;;;;3.80;2.93;;;;;;;20.31;51.29;97069.56;4955304;28;20227;-29
2023/04/21 01:17:12;;;;;;;6.13;2.93;;;;;;;20.32;51.83;97067.91;4951947;28;20237;-28
2023/04/21 01:19:41;;;;;;;3.03;2.73;;;;;;;20.18;51.72;97033.50;4943724;29;20214;-26
2023/04/21 01:22:11;;;;;;;3.20;2.60;;;;;;;20.34;51.62;97058.63;4951476;29;20255;-26
2023/04/21 01:24:39;;;;;;;2.97;2.60;;;;;;;20.34;51.64;97061.16;4955233;28;20240;-26
2023/04/21 01:27:13;;;;;;;5.17;3.00;;;;;;;20.35;51.71;97065.44;4950046;28;20240;-26
2023/04/21 01:29:40;;;;;;;3.73;2.77;;;;;;;20.35;51.68;97066.31;4942726;29;20299;-26
2023/04/21 01:32:08;;;;;;;3.50;2.80;;;;;;;20.36;51.58;97059.50;4954862;28;20315;-27
2023/04/21 01:34:35;;;;;;;3.43;3.13;;;;;;;20.36;51.77;97057.81;4954055;29;20208;-27
2023/04/21 01:37:02;;;;;;;5.20;3.00;;;;;;;20.37;51.67;97061.25;4954965;28;20236;-26
2023/04/21 01:39:29;;;;;;;3.40;3.10;;;;;;;20.38;51.75;97052.75;4953279;28;20236;-26
2023/04/21 01:41:56;;;;;;;2.90;2.70;;;;;;;20.40;51.45;97056.22;4947648;28;20228;-27
2023/04/21 01:44:24;;;;;;;2.70;2.50;;;;;;;20.39;51.71;97047.69;4974201;28;20212;-26
2023/04/21 01:46:51;;;;;;;4.13;2.97;;;;;;;20.41;51.74;97045.19;4954790;28;20626;-29
2023/04/21 01:49:18;;;;;;;2.63;2.43;;;;;;;20.41;51.56;97052.84;4939376;28;20216;-26
2023/04/21 01:51:45;;;;;;;2.70;2.50;;;;;;;20.41;51.46;97058.81;4954385;28;20220;-26
2023/04/21 01:54:11;;;;;;;2.80;2.60;;;;;;;20.42;51.44;97055.44;4948111;28;20217;-26
2023/04/21 01:56:38;;;;;;;2.63;2.43;;;;;;;20.43;51.38;97054.59;4947364;28;20208;-29
2023/04/21 01:59:04;;;;;;;3.00;2.70;;;;;;;20.44;51.40;97060.56;4946208;28;20239;-26
2023/04/21 02:01:31;;;;;;;3.20;2.90;;;;;;;20.43;51.38;97046.94;4946550;28;20287;-26
2023/04/21 02:03:58;;;;;;;3.10;2.80;;;;;;;20.44;51.54;97038.47;4940824;28;20684;-26
2023/04/21 02:06:25;;;;;;;2.80;2.60;;;;;;;20.46;51.38;97041.91;4950461;29;20299;-29
2023/04/21 02:08:51;;;;;;;2.67;2.47;;;;;;;20.46;51.41;97030.84;4950480;28;20228;-26
2023/04/21 02:11:18;;;;;;;3.20;2.83;;;;;;;20.39;51.48;97021.28;4944519;29;20622;-26
2023/04/21 02:13:45;;;;;;;3.20;2.90;;;;;;;20.46;51.48;97030.84;4953115;28;20488;-26
2023/04/21 02:16:12;;;;;;;3.47;2.83;;;;;;;20.44;51.62;97028.25;4946771;28;20695;-26
2023/04/21 02:18:40;;;;;;;3.00;2.70;;;;;;;20.44;51.09;97041.03;4943977;28;20254;-26
2023/04/21 02:21:06;;;;;;;3.10;2.90;;;;;;;20.44;51.28;97037.59;4954616;28;20203;-26
2023/04/21 02:23:33;;;;;;;4.30;2.60;;;;;;;20.43;51.87;97051.19;4952754;28;20200;-26
2023/04/21 02:25:59;;;;;;;3.17;2.87;;;;;;;20.42;51.56;97059.66;4944861;28;20208;-29
2023/04/21 02:28:26;;;;;;;3.20;2.40;;;;;;;20.40;51.63;97072.38;4944552;29;20225;-26
2023/04/21 02:30:52;;;;;;;2.73;2.53;;;;;;;20.40;51.83;97077.47;4942913;28;20255;-26
2023/04/21 02:33:19;;;;;;;4.17;2.63;;;;;;;20.39;51.48;97069.78;4942342;29;20196;-28
2023/04/21 02:35:46;;;;;;;2.97;2.53;;;;;;;20.38;51.36;97066.38;4950510;28;20668;-29
2023/04/21 02:38:12;;;;;;;3.50;2.77;;;;;;;20.37;51.48;97072.28;4947711;28;20398;-27
2023/04/21 02:40:39;;;;;;;2.67;2.47;;;;;;;20.36;51.56;97070.56;4948731;29;20200;-26
2023/04/21 02:43:06;;;;;;;2.83;2.60;;;;;;;20.35;51.75;97066.31;4949552;28;20235;-28
2023/04/21 02:45:33;;;;;;;3.07;2.77;;;;;;;20.28;51.66;97056.75;4951757;28;20726;-26
2023/04/21 02:47:59;;;;;;;2.70;2.50;;;;;;;20.34;51.60;97064.56;4939764;28;20306;-26
2023/04/21 02:50:26;;;;;;;3.07;2.53;;;;;;;20.33;51.60;97060.28;4939795;29;20200;-29
2023/04/21 02:52:52;;;;;;;4.33;2.50;;;;;;;20.32;51.69;97056.03;4949415;29;20240;-28
2023/04/21 02:55:21;;;;;;;2.80;2.60;;;;;;;20.33;51.81;97054.31;4941844;28;20204;-26
2023/04/21 02:57:47;;;;;;;2.80;2.37;;;;;;;20.32;51.96;97066.22;4946950;28;20308;-26
2023/04/21 03:00:14;;;;;;;2.50;2.30;;;;;;;20.32;51.75;97042.38;4951494;28;20235;-26
2023/04/21 03:02:41;;;;;;;3.97;2.77;;;;;;;20.31;51.90;97036.41;4950223;28;20204;-33
2023/04/21 03:05:08;;;;;;;2.83;2.40;;;;;;;20.32;52.04;97044.94;4950629;28;20607;-26
2023/04/21 03:07:34;;;;;;;3.23;2.93;;;;;;;20.31;52.03;97044.06;4944184;29;20279;-26
2023/04/21 03:10:01;;;;;;;2.90;2.60;;;;;;;20.30;51.88;97047.44;4952455;28;20287;-26
2023/04/21 03:12:27;;;;;;;3.07;2.60;;;;;;;20.30;51.76;97046.56;4947910;29;20221;-28
2023/04/21 03:14:54;;;;;;;2.73;2.53;;;;;;;20.31;51.50;97045.78;4946777;29;20721;-26
2023/04/21 03:17:21;;;;;;;3.57;2.60;;;;;;;20.30;52.00;97055.09;4944827;28;20227;-27
2023/04/21 03:19:48;;;;;;;2.60;2.40;;;;;;;20.31;51.69;97051.72;4948753;28;20204;-30
2023/04/21 03:22:14;;;;;;;3.33;3.00;;;;;;;20.32;52.83;97055.16;4952069;28;20588;-26
2023/04/21 03:24:41;;;;;;;3.50;2.83;;;;;;;20.31;52.07;97051.72;4946788;28;20196;-26
2023/04/21 03:27:07;;;;;;;3.13;2.50;;;;;;;20.32;51.90;97050.91;4939653;28;20719;-26
2023/04/21 03:29:36;;;;;;;3.20;2.67;;;;;;;20.33;51.91;97049.19;4948803;29;20208;-28
2023/04/21 03:32:03;;;;;;;2.57;2.37;;;;;;;20.32;51.77;97052.59;4951072;28;20271;-26
2023/04/21 03:34:29;;;;;;;2.70;2.50;;;;;;;20.32;52.04;97043.25;4948115;29;20225;-27
2023/04/21 03:36:56;;;;;;;3.40;3.10;;;;;;;20.32;51.81;97035.59;4947657;28;20200;-26
2023/04/21 03:39:22;;;;;;;2.80;2.57;;;;;;;20.33;51.62;97029.66;4940825;29;20200;-26
2023/04/21 03:41:50;;;;;;;2.60;2.40;;;;;;;20.31;51.83;97046.63;4946195;28;20252;-29
2023/04/21 03:44:16;;;;;;;3.03;2.70;;;;;;;20.32;51.86;97056.03;4938276;28;20231;-26
2023/04/21 03:46:43;;;;;;;2.83;2.63;;;;;;;20.31;51.96;97054.28;4948522;29;20216;-30
2023/04/21 03:49:09;;;;;;;5.90;2.80;;;;;;;20.31;52.10;97061.09;4948721;29;20268;-27
2023/04/21 03:51:36;;;;;;;3.57;2.93;;;;;;;20.31;51.47;97056.81;4941872;29;20217;-28
2023/04/21 03:54:03;;;;;;;2.80;2.50;;;;;;;20.31;51.80;97061.09;4943459;29;20774;-26
2023/04/21 03:56:29;;;;;;;2.77;2.47;;;;;;;20.30;51.99;97051.69;4944858;29;20255;-26
2023/04/21 03:58:56;;;;;;;2.73;2.53;;;;;;;20.29;51.98;97048.28;4942856;29;20228;-28
2023/04/21 04:01:22;;;;;;;3.03;2.73;;;;;;;20.29;52.16;97040.63;4947324;28;20222;-26
2023/04/21 04:03:49;;;;;;;2.97;2.77;;;;;;;20.29;51.91;97035.53;4942113;28;20292;-27
2023/04/21 04:06:16;;;;;;;2.70;2.50;;;;;;;20.29;52.10;97029.53;4941162;29;20209;-26
2023/04/21 04:08:43;;;;;;;2.90;2.60;;;;;;;20.29;51.77;97029.53;4942115;29;20247;-26
2023/04/21 04:11:09;;;;;;;3.23;2.50;;;;;;;20.27;51.64;97016.75;4966593;28;20204;-26
2023/04/21 04:13:36;;;;;;;2.67;2.47;;;;;;;20.28;51.73;97020.16;4940673;29;20759;-26
2023/04/21 04:16:02;;;;;;;3.33;2.47;;;;;;;20.27;51.93;97026.06;4942709;29;20200;-28
2023/04/21 04:18:29;;;;;;;3.47;2.40;;;;;;;20.27;51.50;97023.53;4950802;28;20279;-26
2023/04/21 04:20:56;;;;;;;2.73;2.53;;;;;;;20.26;51.84;97034.56;4944510;28;20296;-26
2023/04/21 04:23:22;;;;;;;3.30;2.67;;;;;;;20.25;51.68;97049.00;4949935;28;20680;-26
2023/04/21 04:25:50;;;;;;;3.20;2.70;;;;;;;20.25;51.85;97069.41;4948656;29;20201;-27
2023/04/21 04:28:17;;;;;;;2.90;2.60;;;;;;;20.26;51.38;97060.97;4945164;28;20225;-26
2023/04/21 04:30:44;;;;;;;3.33;2.67;;;;;;;20.26;51.54;97066.06;4950159;29;20224;-31
2023/04/21 04:33:10;;;;;;;3.10;2.87;;;;;;;20.27;51.74;97069.47;4953474;29;20252;-26
2023/04/21 04:35:37;;;;;;;2.90;2.63;;;;;;;20.27;51.95;97062.69;4954477;28;20223;-26
2023/04/21 04:38:04;;;;;;;3.23;2.93;;;;;;;20.29;51.58;97063.59;4951995;28;20222;-27
2023/04/21 04:40:32;;;;;;;3.00;2.60;;;;;;;20.30;51.90;97064.44;4944675;29;20660;-26
2023/04/21 04:43:00;;;;;;;2.70;2.50;;;;;;;20.32;51.70;97070.44;4951049;28;20201;-27
2023/04/21 04:45:28;;;;;;;5.47;3.13;;;;;;;20.32;51.87;97061.13;4951958;29;20308;-27
2023/04/21 04:47:55;;;;;;;5.47;3.87;;;;;;;20.34;51.84;97067.09;4948958;28;20235;-26
2023/04/21 04:50:21;;;;;;;4.20;3.80;;;;;;;20.34;51.77;97064.56;4955181;28;20223;-26
2023/04/21 04:52:48;;;;;;;3.80;3.40;;;;;;;20.37;51.57;97063.78;4945227;28;20935;-26
2023/04/21 04:55:15;;;;;;;4.47;3.50;;;;;;;20.37;51.46;97067.19;4946049;29;20205;-26
2023/04/21 04:57:41;;;;;;;5.30;4.00;;;;;;;20.39;51.64;97067.22;4943967;28;20682;-26
2023/04/21 05:00:10;;;;;;;4.43;3.43;;;;;;;20.38;51.48;97066.38;4941123;29;20699;-26
2023/04/21 05:02:37;;;;;;;7.10;3.50;;;;;;;20.40;51.47;97067.28;4943747;28;20316;-31
2023/04/21 05:05:05;;;;;;;8.10;3.63;;;;;;;20.42;51.18;97062.22;4939572;29;20209;-26
2023/04/21 05:07:32;;;;;;;4.00;3.60;;;;;;;20.43;51.38;97069.91;4945475;29;20263;-26
2023/04/21 05:10:00;;;;;;;4.07;3.50;;;;;;;20.43;51.45;97075.00;4944122;29;20236;-29
2023/04/21 05:12:26;;;;;;;3.50;3.20;;;;;;;20.45;51.38;97082.72;4940266;28;20663;-26
2023/04/21 05:14:53;;;;;;;4.27;3.03;;;;;;;20.46;51.32;97080.19;4952337;28;20243;-28
2023/04/21 05:17:19;;;;;;;4.07;3.33;;;;;;;20.42;51.32;97080.94;4954170;28;20236;-26
2023/04/21 05:19:46;;;;;;;4.20;3.57;;;;;;;20.47;51.14;97088.72;4946606;28;20196;-29
2023/04/21 05:22:12;;;;;;;3.80;3.40;;;;;;;20.48;51.39;97083.66;4953031;28;20289;-26
2023/04/21 05:24:40;;;;;;;4.30;3.10;;;;;;;20.49;51.21;97081.97;4945744;29;20236;-26
2023/04/21 05:27:06;;;;;;;3.50;3.20;;;;;;;20.50;51.00;97083.69;4951940;28;20575;-26
2023/04/21 05:29:33;;;;;;;7.07;3.33;;;;;;;20.49;51.38;97085.38;4949707;28;20201;-26
2023/04/21 05:32:00;;;;;;;4.30;3.57;;;;;;;20.51;51.36;97087.97;4947421;28;20228;-26
2023/04/21 05:34:27;;;;;;;3.20;2.90;;;;;;;20.50;51.33;97099.91;4950432;28;20196;-26
2023/04/21 05:36:53;;;;;;;4.53;2.93;;;;;;;20.50;51.44;97086.25;4942830;28;20240;-26
2023/04/21 05:39:20;;;;;;;10.47;4.43;;;;;;;20.48;50.78;97083.66;4945835;29;20288;-26
2023/04/21 05:41:46;;;;;;;12.83;4.33;;;;;;;20.48;50.87;97083.66;4949604;28;20622;-28
2023/04/21 05:44:16;;;;;;;9.17;4.47;;;;;;;20.47;50.78;97089.59;4943468;28;20201;-29
2023/04/21 05:46:43;;;;;;;10.33;5.47;;;;;;;20.47;50.53;97106.59;4948629;28;20251;-26
2023/04/21 05:49:10;;;;;;;8.17;6.07;;;;;;;20.46;49.46;97092.13;4950240;28;20648;-26
2023/04/21 05:51:36;;;;;;;9.63;6.90;;;;;;;20.44;50.17;97096.31;4942463;29;20240;-27
2023/04/21 05:54:03;;;;;;;7.90;7.10;;;;;;;20.41;49.82;97092.00;4954778;28;20286;-26
2023/04/21 05:56:29;;;;;;;12.63;8.70;;;;;;;20.40;49.19;97092.78;4943620;28;20213;-26
2023/04/21 05:58:56;;;;;;;9.97;8.30;;;;;;;20.39;49.46;97095.31;4947740;28;20263;-26
2023/04/21 06:01:22;;;;;;;13.60;8.43;;;;;;;20.37;49.33;97090.16;4940868;29;20204;-26
2023/04/21 06:03:49;;;;;;;12.10;9.13;;;;;;;20.35;49.37;97094.38;4954721;28;20204;-26
2023/04/21 06:06:16;;;;;;;10.07;9.07;;;;;;;20.35;49.43;97096.06;4954521;28;20706;-27
2023/04/21 06:08:42;;;;;;;8.90;7.87;;;;;;;20.29;49.65;97086.56;4949607;28;20798;-26
2023/04/21 06:11:09;;;;;;;10.20;8.57;;;;;;;20.33;49.63;97088.34;4937194;29;20212;-26
2023/04/21 06:13:36;;;;;;;11.30;9.20;;;;;;;20.31;49.20;97095.09;4954611;28;20323;-26
2023/04/21 06:16:05;;;;;;;10.70;9.20;;;;;;;20.31;49.19;97104.47;4954045;28;20243;-26
2023/04/21 06:18:31;;;;;;;12.17;9.23;;;;;;;20.30;49.25;97111.25;4972403;28;20318;-26
2023/04/21 06:20:58;;;;;;;10.00;9.00;;;;;;;20.30;49.64;97098.47;4948052;28;20197;-26
2023/04/21 06:23:24;;;;;;;15.00;9.33;;;;;;;20.30;49.56;97095.94;4948105;28;20201;-28
2023/04/21 06:26:05;;;;;;;15.53;9.37;;;;;;;20.31;49.50;97099.34;4954298;28;20236;-26
2023/04/21 06:28:32;;;;;;;15.37;9.80;;;;;;;20.30;49.68;97092.50;4936579;29;20225;-33
2023/04/21 06:31:00;;;;;;;14.63;8.77;;;;;;;20.27;49.79;97083.09;4952710;29;20200;-28
2023/04/21 06:33:26;;;;;;;12.70;8.50;;;;;;;20.31;49.99;97096.81;4935237;29;20264;-26
2023/04/21 06:35:53;;;;;;;14.90;8.17;;;;;;;20.31;50.25;97100.19;4951870;29;20211;-29
2023/04/21 06:38:20;;;;;;;11.87;8.60;;;;;;;20.29;49.79;97090.78;4943445;29;20228;-27
2023/04/21 06:40:46;;;;;;;15.13;8.37;;;;;;;20.31;49.93;97086.59;4949652;29;20279;-26
2023/04/21 06:43:13;;;;;;;11.60;8.80;;;;;;;20.31;49.99;97092.53;4953690;28;20215;-26
2023/04/21 06:45:40;;;;;;;10.73;8.30;;;;;;;20.31;50.35;97095.09;4953429;28;20287;-29
2023/04/21 06:48:06;;;;;;;14.87;7.80;;;;;;;20.31;50.49;97092.53;4952815;28;20224;-26
2023/04/21 06:50:33;;;;;;;14.87;7.80;;;;;;;20.32;50.35;97101.06;4943995;29;20211;-26
2023/04/21 06:52:59;;;;;;;10.37;7.67;;;;;;;20.33;50.91;97107.91;4948167;29;20598;-26
2023/04/21 06:55:26;;;;;;;12.13;7.37;;;;;;;20.33;50.78;97102.78;4938373;28;20205;-26
2023/04/21 06:57:52;;;;;;;9.00;7.10;;;;;;;20.33;50.72;97101.13;4944780;28;20230;-29
2023/04/21 07:00:19;;;;;;;13.83;7.30;;;;;;;20.33;50.58;97103.66;4953097;28;20584;-26
2023/04/21 07:02:46;;;;;;;11.23;7.30;;;;;;;20.33;50.56;97105.34;4942160;28;20217;-26
2023/04/21 07:05:12;;;;;;;12.90;7.30;;;;;;;20.33;50.86;97097.69;4952253;28;20232;-28
2023/04/21 07:07:39;;;;;;;11.93;6.50;;;;;;;20.32;50.58;97099.41;4945448;28;20224;-27
2023/04/21 07:10:06;;;;;;;8.37;6.00;;;;;;;20.33;50.59;97095.13;4943890;28;20200;-26
2023/04/21 07:12:33;;;;;;;10.83;6.87;;;;;;;20.32;50.38;97104.50;4953117;28;20216;-26
2023/04/21 07:14:59;;;;;;;8.80;6.53;;;;;;;20.32;50.06;97095.97;4942386;28;20291;-27
2023/04/21 07:17:26;;;;;;;16.63;7.23;;;;;;;20.33;51.12;97095.13;4952612;28;20788;-26
2023/04/21 07:19:52;;;;;;;9.73;6.73;;;;;;;20.32;50.93;97099.41;4945676;28;20623;-26
2023/04/21 07:22:19;;;;;;;10.67;5.97;;;;;;;20.31;50.73;97090.00;4944259;28;20212;-27
2023/04/21 07:24:46;;;;;;;8.60;6.17;;;;;;;20.32;50.86;97095.97;4941150;28;20197;-26
2023/04/21 07:27:14;;;;;;;7.80;5.80;;;;;;;20.32;50.33;97095.97;4952908;28;20654;-26
2023/04/21 07:29:41;;;;;;;10.53;6.50;;;;;;;20.31;50.71;97087.44;4945914;28;20235;-26
2023/04/21 07:32:08;;;;;;;9.93;5.87;;;;;;;20.30;50.57;97093.38;4948294;29;20307;-26
2023/04/21 07:34:34;;;;;;;10.40;6.40;;;;;;;20.32;51.91;97091.75;4946063;28;20244;-29
2023/04/21 07:37:01;;;;;;;9.33;6.03;;;;;;;20.32;51.45;97096.84;4942290;29;20617;-26
2023/04/21 07:39:27;;;;;;;12.90;6.70;;;;;;;20.34;51.81;97094.34;4953152;29;20578;-26
2023/04/21 07:41:54;;;;;;;11.80;6.80;;;;;;;20.33;51.70;97084.94;4953404;28;20307;-26
2023/04/21 07:44:21;;;;;;;10.70;5.93;;;;;;;20.29;51.48;97084.00;4953140;28;20204;-26
2023/04/21 07:46:47;;;;;;;13.60;6.50;;;;;;;20.34;51.70;97099.44;4949063;29;20204;-26
2023/04/21 07:49:14;;;;;;;15.03;6.77;;;;;;;20.35;52.02;97099.47;4946304;28;20205;-30
2023/04/21 07:51:41;;;;;;;18.30;5.87;;;;;;;20.29;52.09;97086.56;4950122;28;20648;-26
2023/04/21 07:54:07;;;;;;;13.90;6.03;;;;;;;20.35;52.02;97096.94;4951177;28;20295;-29
2023/04/21 07:56:34;;;;;;;11.07;6.40;;;;;;;20.37;51.37;97096.97;4943504;28;20578;-26
2023/04/21 07:59:00;;;;;;;18.30;5.77;;;;;;;20.38;51.97;97091.91;4944918;29;20312;-26
2023/04/21 08:01:27;;;;;;;10.87;5.33;;;;;;;20.39;51.55;97088.53;4952794;29;20204;-26
2023/04/21 08:03:53;;;;;;;13.00;5.67;;;;;;;20.39;51.71;97093.63;4947851;29;20279;-27
2023/04/21 08:06:20;;;;;;;12.37;5.90;;;;;;;20.41;51.77;97097.09;4955497;28;20212;-26
2023/04/21 08:08:47;;;;;;;11.57;5.00;;;;;;;20.41;50.82;97099.66;4950896;28;20275;-26
2023/04/21 08:11:13;;;;;;;13.07;6.03;;;;;;;20.42;51.34;97098.81;4949102;28;20237;-26
2023/04/21 08:13:40;;;;;;;10.20;5.20;;;;;;;20.44;51.23;97089.53;4948451;29;20267;-26
2023/04/21 08:16:06;;;;;;;13.00;5.70;;;;;;;20.30;51.35;97072.97;4956378;28;20667;-28
2023/04/21 08:18:33;;;;;;;13.60;5.43;;;;;;;20.46;51.95;97095.50;4953841;28;20236;-26
2023/04/21 08:21:01;;;;;;;8.20;5.60;;;;;;;20.47;51.48;97102.38;4956467;28;20200;-26
2023/04/21 08:23:29;;;;;;;16.07;5.60;;;;;;;20.47;51.06;97104.91;4949688;28;20203;-26
2023/04/21 08:25:57;;;;;;;12.43;5.27;;;;;;;20.47;51.33;97091.28;4955746;28;20196;-26
2023/04/21 08:28:24;;;;;;;10.87;5.43;;;;;;;20.49;51.02;97090.47;4955951;28;20221;-26
2023/04/21 08:30:50;;;;;;;10.07;5.10;;;;;;;20.51;51.05;97087.97;4956532;28;20204;-31
2023/04/21 08:33:17;;;;;;;10.60;5.33;;;;;;;20.51;51.51;97091.41;4949671;28;20798;-28
2023/04/21 08:35:44;;;;;;;8.93;4.80;;;;;;;20.52;51.38;97092.28;4954624;29;20232;-26
2023/04/21 08:38:29;;;;;;;5.80;5.17;;;;;;;20.37;51.78;97061.25;4943955;29;20597;-31
2023/04/21 08:41:00;;;;;;;7.53;4.83;;;;;;;20.51;51.26;97075.22;4944075;29;20650;-26
2023/04/21 08:43:27;;;;;;;8.60;5.00;;;;;;;20.52;51.20;97072.69;4952940;29;20232;-26
2023/04/21 08:45:54;;;;;;;9.93;5.10;;;;;;;20.53;51.46;97074.44;4950026;29;20196;-26
2023/04/21 08:48:22;;;;;;;8.37;5.00;;;;;;;20.53;51.42;97066.78;4955901;28;20275;-26
2023/04/21 08:50:49;;;;;;;6.13;4.43;;;;;;;20.53;51.49;97074.44;4950843;28;20641;-26
2023/04/21 08:53:16;;;;;;;10.10;4.63;;;;;;;20.53;51.29;97071.91;4948169;28;20311;-26
2023/04/21 08:55:43;;;;;;;7.57;5.27;;;;;;;20.53;51.23;97077.00;4952118;28;20240;-28
2023/04/21 08:58:09;;;;;;;6.17;4.73;;;;;;;20.53;51.49;97076.13;4952099;29;20238;-26
2023/04/21 09:00:36;;;;;;;11.93;5.07;;;;;;;20.47;51.36;97065.75;4955256;29;20281;-26
2023/04/21 09:03:06;;;;;;;10.13;4.50;;;;;;;20.50;51.45;97082.03;4955950;28;20207;-27
2023/04/21 09:05:58;;;;;;;10.07;5.67;;;;;;;20.50;51.51;97076.91;4948774;29;20295;-26
2023/04/21 09:08:27;;;;;;;9.17;5.13;;;;;;;20.51;51.55;97085.41;4947085;28;20215;-26
2023/04/21 09:10:53;;;;;;;8.57;4.73;;;;;;;20.44;51.40;97069.09;4955365;28;20201;-26
2023/04/21 09:13:28;;;;;;;8.23;4.63;;;;;;;20.47;51.64;97075.97;4954150;29;20294;-26
2023/04/21 09:15:54;;;;;;;8.33;4.40;;;;;;;20.46;51.49;97079.34;4954309;29;20239;-26
2023/04/21 09:18:22;;;;;;;7.60;4.13;;;;;;;20.44;51.44;97079.31;4948959;28;20322;-26
2023/04/21 09:20:51;;;;;;;6.37;4.57;;;;;;;20.43;51.55;97071.63;4946570;29;20197;-26
2023/04/21 09:23:19;;;;;;;10.10;4.50;;;;;;;20.43;51.45;97076.72;4952419;29;20239;-26
2023/04/21 09:25:46;;;;;;;6.57;4.30;;;;;;;20.41;51.97;97076.69;4944354;29;20212;-29
2023/04/21 09:28:13;;;;;;;5.10;4.20;;;;;;;20.41;51.68;97074.13;4951029;28;20239;-26
2023/04/21 09:30:40;;;;;;;10.03;4.27;;;;;;;20.34;51.62;97069.66;4950940;28;20212;-26
2023/04/21 09:33:13;;;;;;;6.87;4.27;;;;;;;20.40;51.86;97077.47;4954697;28;20224;-30
2023/04/21 09:35:54;;;;;;;6.30;4.27;;;;;;;20.40;51.58;97076.63;4953627;29;20204;-26
2023/04/21 09:38:21;;;;;;;8.30;3.83;;;;;;;20.41;51.86;97075.81;4952080;28;20230;-26
2023/04/21 09:40:57;;;;;;;6.43;4.47;;;;;;;20.40;51.85;97074.09;4950906;29;20239;-30
2023/04/21 09:43:24;;;;;;;7.77;4.00;;;;;;;20.40;51.76;97076.63;4953307;28;20630;-26
2023/04/21 09:45:51;;;;;;;8.73;4.23;;;;;;;20.18;52.10;97041.16;4952243;28;20617;-26
2023/04/21 09:48:18;;;;;;;5.63;4.00;;;;;;;20.40;52.00;97063.88;4937671;29;20678;-34
2023/04/21 09:50:47;;;;;;;10.03;4.17;;;;;;;20.41;52.43;97074.13;4976561;28;20212;-26
2023/04/21 09:53:17;;;;;;;8.87;4.37;;;;;;;20.41;52.51;97063.91;4953616;29;20228;-26
2023/04/21 09:55:45;;;;;;;8.40;4.93;;;;;;;20.42;52.17;97063.09;4937755;29;20200;-26
2023/04/21 09:58:11;;;;;;;8.10;4.80;;;;;;;20.39;52.14;97051.91;4951456;28;20228;-26
2023/04/21 10:00:38;;;;;;;6.33;4.37;;;;;;;20.29;52.17;97027.88;4929888;29;20655;-26
2023/04/21 10:03:09;;;;;;;7.13;4.60;;;;;;;20.45;51.99;97060.59;4955331;28;20200;-26
2023/04/21 10:05:39;;;;;;;6.97;4.50;;;;;;;20.47;52.21;97053.00;4936144;29;20216;-26
2023/04/21 10:08:10;;;;;;;6.90;4.73;;;;;;;20.43;51.95;97046.94;4951582;28;20224;-26
2023/04/21 10:10:37;;;;;;;5.63;4.40;;;;;;;20.45;52.53;97046.97;4948891;29;20256;-27
2023/04/21 10:13:03;;;;;;;7.23;4.60;;;;;;;20.49;52.37;97049.66;4933464;29;20231;-26
2023/04/21 10:15:31;;;;;;;6.63;4.37;;;;;;;20.42;52.38;97034.13;4951172;29;20233;-26
2023/04/21 10:18:13;;;;;;;7.33;4.50;;;;;;;20.52;52.48;97044.63;4954260;28;20296;-26
2023/04/21 10:20:58;;;;;;;7.03;4.60;;;;;;;20.54;52.69;97037.03;4953285;28;20208;-27
2023/04/21 10:23:31;;;;;;;8.53;4.50;;;;;;;20.54;52.81;97042.97;4953379;28;20200;-26
2023/04/21 10:26:08;;;;;;;6.10;4.23;;;;;;;20.53;52.53;97038.72;4954175;28;20200;-26
2023/04/21 10:28:42;;;;;;;8.87;4.73;;;;;;;20.41;52.48;97015.44;4953341;28;20262;-34
2023/04/21 10:31:33;;;;;;;7.60;4.53;;;;;;;20.53;52.47;97035.28;4947481;29;20226;-26
2023/04/21 10:34:12;;;;;;;10.33;4.83;;;;;;;20.53;52.44;97032.72;4944667;29;20707;-26
2023/04/21 10:37:05;;;;;;;14.33;4.90;;;;;;;20.53;52.67;97027.63;4948185;28;20268;-27
2023/04/21 10:39:42;;;;;;;8.73;4.83;;;;;;;20.52;52.63;97020.81;4939798;29;20208;-26
2023/04/21 10:42:11;;;;;;;8.43;4.57;;;;;;;20.50;52.44;97020.75;4949791;28;20289;-30
2023/04/21 10:44:44;;;;;;;10.43;4.83;;;;;;;20.51;52.63;97024.16;4952514;28;20197;-26
2023/04/21 10:47:10;;;;;;;6.63;4.53;;;;;;;20.49;52.69;97013.06;4953680;28;20231;-28
2023/04/21 10:49:38;;;;;;;7.57;5.03;;;;;;;20.48;52.53;97017.28;4951776;28;20251;-28
2023/04/21 10:52:05;;;;;;;20.63;5.23;;;;;;;20.48;52.78;97032.63;4949997;28;20207;-26
2023/04/21 10:54:41;;;;;;;7.00;4.90;;;;;;;20.46;52.90;97013.84;4951544;28;20220;-26
2023/04/21 10:57:10;;;;;;;7.53;5.00;;;;;;;20.46;53.05;97002.78;4948300;28;20220;-26
2023/04/21 10:59:37;;;;;;;10.63;4.77;;;;;;;20.44;52.89;97005.28;4951344;28;20415;-26
2023/04/21 11:02:10;;;;;;;7.67;4.80;;;;;;;20.44;52.93;97007.84;4951826;29;20295;-30
2023/04/21 11:04:43;;;;;;;8.83;4.90;;;;;;;20.44;53.17;97006.97;4948914;28;20212;-31
2023/04/21 11:07:21;;;;;;;6.43;4.80;;;;;;;20.44;53.31;96999.31;4946104;29;20252;-29
2023/04/21 11:09:59;;;;;;;6.50;4.83;;;;;;;20.43;53.25;96998.44;4948644;29;20563;-26
2023/04/21 11:12:27;;;;;;;6.60;4.40;;;;;;;20.44;53.19;96999.31;4948356;28;20196;-28
2023/04/21 11:14:54;;;;;;;9.33;4.87;;;;;;;20.45;53.42;97006.13;4947357;28;20264;-26
2023/04/21 11:17:22;;;;;;;8.97;5.00;;;;;;;20.43;53.53;96995.88;4943897;28;20224;-26
2023/04/21 11:19:50;;;;;;;7.50;4.80;;;;;;;20.46;53.42;96990.03;4950992;28;20200;-26
2023/04/21 11:22:21;;;;;;;7.90;4.87;;;;;;;20.39;53.65;96975.34;4950090;29;20585;-27
2023/04/21 11:24:50;;;;;;;6.63;4.97;;;;;;;20.46;53.43;96988.31;4945309;29;20193;-26
2023/04/21 11:27:18;;;;;;;7.07;4.63;;;;;;;20.46;53.64;96980.66;4950064;28;20865;-30
2023/04/21 11:29:45;;;;;;;6.97;4.60;;;;;;;20.47;53.42;96984.06;4950462;29;20227;-28
2023/04/21 11:32:12;;;;;;;5.67;4.93;;;;;;;20.47;53.58;96981.53;4939721;29;20243;-26
2023/04/21 11:34:38;;;;;;;5.30;4.60;;;;;;;20.47;53.64;96982.41;4946631;28;20224;-26